Redwood City, CA (94061)

11:03 PM PDT on September 04, 2015 (GMT -0700)
Jasper Ridge Biological Preserve | | Change Station
CLOSE
Current Station
Personal Weather Station
Location: Woodside, CA
Elevation: 420 ft
Nearby Weather Stations

Elev 420 ft 37.41 °N, 122.24 °W | Updated 10 minutes ago

Partly Cloudy
Partly Cloudy
57.7 °F
Feels Like 57.7 °F
N
3.0
Wind Variable Wind from SSW
Gusts 5.0 mph

Today
High -- | Low -- °F
--% Chance of Precip.
Yesterday
High -- | Low -- °F
Precip. -- in
6:41 AM 7:33 PM
Waning Gibbous, 52% visible
Pressure 29.91 in
Visibility 10.0 miles
Clouds Clear
Dew Point 50 °F
Humidity 76%
Rainfall 0.00 in
Snow Depth Not available.
UV 0 out of 12
Pollen 8.30 out of 12
Air Quality Not available.
Flu Activity Not available.
METAR KSQL 050555Z AUTO 27004KT 10SM CLR 15/10 A2991 RMK AO2
Pressure 29.91 in
Visibility 10.0 miles
Clouds Clear
Dew Point 50 °F
Humidity 76%
Rainfall 0.00 in
Snow Depth Not available.
UV 0 out of 12
Pollen 8.30 out of 12
Air Quality Not available.
Flu Activity Not available.
METAR KSQL 050555Z AUTO 27004KT 10SM CLR 15/10 A2991 RMK AO2

10-Day Weather Forecast

×

Almanac

Astronomy

Sep. 04, 2015 Rise Set
Actual Time
Civil Twilight
Nautical Twilight
Astronomical Twilight
Moon
Length of Visible Light
Length of Day
Tomorrow will be .
, % of the Moon is Illuminated

Today's Extremes

State Highs State Lows

Community

WunderPhotos

Upload Photos

1,852,431 photos uploaded!

WunderBlogs® & News

Nearby

Air Quality

  Air Quality AQ Index Pollutant
Not available.

Snow Depth

Station Depth Elevation

Earthquake Activity

City Distance Mag. Time & Date
Minimum magnitude displayed is 2.5.

Coastal Water Temperatures

Place Temperature

Stations

Nearby Weather Stations

Station Location Temp. Windchill Dew Point Humidity Wind Precip. Elev Updated Type